FR-0212 weather

Centre Hospitalier Heliport
Albertville, Auvergne-Rhône-Alpes, France

Public forecast

Using degrees Celsius for public forecast. Weather courtesy of forecast.io.

Closest aviation weather report (METAR) to Centre Hospitalier Heliport

Closest report is Annecy-Haute-Savoie-Mont Blanc Airport, 19.2 nm (35.5 km) NW. Retrieved 2020/08/07 18:30 UTC (0 seconds ago):

LFLP 071830Z AUTO 32003KT 300V360 CAVOK 30/14 Q1018 NOSIG

Closest aviation forecast (TAF) to Centre Hospitalier Heliport

Closest forecast is Annecy-Haute-Savoie-Mont Blanc Airport, 19.2 nm (35.5 km) NW. Retrieved 2020/08/07 15:00 UTC (3 hours ago):

TAF LFLP 071400Z 0715/0815 35005KT CAVOK BECMG 0720/0722 VRB03KT BECMG 0810/0812 34005KT